sensor_id;sensor_type;location;lat;lon;timestamp;temperature;humidity
2062;DHT22;11070;51.336;12.340;2022-07-11T00:00:10;13.30;1.00
2062;DHT22;11070;51.336;12.340;2022-07-11T00:02:36;13.20;1.00
2062;DHT22;11070;51.336;12.340;2022-07-11T00:05:02;13.20;1.00
2062;DHT22;11070;51.336;12.340;2022-07-11T00:07:28;13.20;1.00
2062;DHT22;11070;51.336;12.340;2022-07-11T00:09:54;13.10;1.30
2062;DHT22;11070;51.336;12.340;2022-07-11T00:12:20;13.10;7.80
2062;DHT22;11070;51.336;12.340;2022-07-11T00:14:47;13.10;9.50
2062;DHT22;11070;51.336;12.340;2022-07-11T00:17:13;13.00;13.70
2062;DHT22;11070;51.336;12.340;2022-07-11T00:19:38;13.00;14.90
2062;DHT22;11070;51.336;12.340;2022-07-11T00:22:05;13.00;22.10
2062;DHT22;11070;51.336;12.340;2022-07-11T00:24:31;12.90;19.50
2062;DHT22;11070;51.336;12.340;2022-07-11T00:26:57;12.90;30.00
2062;DHT22;11070;51.336;12.340;2022-07-11T00:29:23;12.90;33.50
2062;DHT22;11070;51.336;12.340;2022-07-11T00:31:48;12.80;35.90
2062;DHT22;11070;51.336;12.340;2022-07-11T00:34:14;12.80;37.40
2062;DHT22;11070;51.336;12.340;2022-07-11T00:36:41;12.80;45.30
2062;DHT22;11070;51.336;12.340;2022-07-11T00:39:07;12.80;48.80
2062;DHT22;11070;51.336;12.340;2022-07-11T00:41:32;12.80;51.60
2062;DHT22;11070;51.336;12.340;2022-07-11T00:43:59;12.70;54.90
2062;DHT22;11070;51.336;12.340;2022-07-11T00:46:27;12.70;59.50
2062;DHT22;11070;51.336;12.340;2022-07-11T00:48:54;12.60;66.00
2062;DHT22;11070;51.336;12.340;2022-07-11T00:51:20;12.60;65.30
2062;DHT22;11070;51.336;12.340;2022-07-11T00:53:53;12.60;72.20
2062;DHT22;11070;51.336;12.340;2022-07-11T00:56:24;12.60;76.80
2062;DHT22;11070;51.336;12.340;2022-07-11T00:58:51;12.50;81.80
2062;DHT22;11070;51.336;12.340;2022-07-11T01:01:17;12.50;77.30
2062;DHT22;11070;51.336;12.340;2022-07-11T01:03:43;12.50;90.10
2062;DHT22;11070;51.336;12.340;2022-07-11T01:06:10;12.40;90.30
2062;DHT22;11070;51.336;12.340;2022-07-11T01:08:37;12.40;98.50
2062;DHT22;11070;51.336;12.340;2022-07-11T01:11:07;12.40;99.10
2062;DHT22;11070;51.336;12.340;2022-07-11T01:13:35;12.30;99.90
2062;DHT22;11070;51.336;12.340;2022-07-11T01:18:36;12.30;99.90
2062;DHT22;11070;51.336;12.340;2022-07-11T01:21:10;12.20;99.90
2062;DHT22;11070;51.336;12.340;2022-07-11T01:23:35;12.20;99.90
2062;DHT22;11070;51.336;12.340;2022-07-11T01:26:01;12.20;99.90
2062;DHT22;11070;51.336;12.340;2022-07-11T01:28:27;12.20;99.90
2062;DHT22;11070;51.336;12.340;2022-07-11T01:30:53;12.10;99.90
2062;DHT22;11070;51.336;12.340;2022-07-11T01:33:18;12.10;99.90
2062;DHT22;11070;51.336;12.340;2022-07-11T01:35:44;12.10;99.90
2062;DHT22;11070;51.336;12.340;2022-07-11T01:38:09;12.10;99.90
2062;DHT22;11070;51.336;12.340;2022-07-11T01:40:35;12.10;99.90
2062;DHT22;11070;51.336;12.340;2022-07-11T01:43:01;12.00;99.90
2062;DHT22;11070;51.336;12.340;2022-07-11T01:45:26;12.00;99.90
2062;DHT22;11070;51.336;12.340;2022-07-11T01:47:52;12.00;99.90
2062;DHT22;11070;51.336;12.340;2022-07-11T01:50:17;12.00;99.90
2062;DHT22;11070;51.336;12.340;2022-07-11T01:52:43;11.90;99.90
2062;DHT22;11070;51.336;12.340;2022-07-11T01:55:09;11.90;99.90
2062;DHT22;11070;51.336;12.340;2022-07-11T01:57:36;11.90;99.90
2062;DHT22;11070;51.336;12.340;2022-07-11T02:00:03;11.80;99.90
2062;DHT22;11070;51.336;12.340;2022-07-11T02:02:29;11.80;99.90
2062;DHT22;11070;51.336;12.340;2022-07-11T02:04:54;11.80;99.90
2062;DHT22;11070;51.336;12.340;2022-07-11T02:07:20;11.70;99.90
2062;DHT22;11070;51.336;12.340;2022-07-11T02:10:06;11.70;99.90
2062;DHT22;11070;51.336;12.340;2022-07-11T02:12:32;11.70;99.90
2062;DHT22;11070;51.336;12.340;2022-07-11T02:14:57;11.70;99.90
2062;DHT22;11070;51.336;12.340;2022-07-11T02:17:23;11.70;99.90
2062;DHT22;11070;51.336;12.340;2022-07-11T02:19:48;11.70;99.90
2062;DHT22;11070;51.336;12.340;2022-07-11T02:22:14;11.60;99.90
2062;DHT22;11070;51.336;12.340;2022-07-11T02:24:40;11.60;99.90
2062;DHT22;11070;51.336;12.340;2022-07-11T02:27:06;11.60;99.90
2062;DHT22;11070;51.336;12.340;2022-07-11T02:29:31;11.60;99.90
2062;DHT22;11070;51.336;12.340;2022-07-11T02:31:57;11.60;99.90
2062;DHT22;11070;51.336;12.340;2022-07-11T02:34:22;11.60;99.90
2062;DHT22;11070;51.336;12.340;2022-07-11T02:36:48;11.60;99.90
2062;DHT22;11070;51.336;12.340;2022-07-11T02:39:13;11.60;99.90
2062;DHT22;11070;51.336;12.340;2022-07-11T02:41:39;11.60;99.90
2062;DHT22;11070;51.336;12.340;2022-07-11T02:44:05;11.50;99.90
2062;DHT22;11070;51.336;12.340;2022-07-11T02:46:30;11.50;99.90
2062;DHT22;11070;51.336;12.340;2022-07-11T02:48:56;11.40;99.90
2062;DHT22;11070;51.336;12.340;2022-07-11T02:51:22;11.40;99.90
2062;DHT22;11070;51.336;12.340;2022-07-11T02:53:47;11.40;99.90
2062;DHT22;11070;51.336;12.340;2022-07-11T02:56:13;11.40;99.90
2062;DHT22;11070;51.336;12.340;2022-07-11T02:58:39;11.40;99.90
2062;DHT22;11070;51.336;12.340;2022-07-11T03:01:04;11.40;99.90
2062;DHT22;11070;51.336;12.340;2022-07-11T03:03:30;11.40;99.90
2062;DHT22;11070;51.336;12.340;2022-07-11T03:05:56;11.40;99.90
2062;DHT22;11070;51.336;12.340;2022-07-11T03:08:21;11.40;99.90
2062;DHT22;11070;51.336;12.340;2022-07-11T03:10:48;11.40;99.90
2062;DHT22;11070;51.336;12.340;2022-07-11T03:13:14;11.40;99.90
2062;DHT22;11070;51.336;12.340;2022-07-11T03:15:40;11.40;99.90
2062;DHT22;11070;51.336;12.340;2022-07-11T03:18:05;11.40;99.90
2062;DHT22;11070;51.336;12.340;2022-07-11T03:20:31;11.40;99.90
2062;DHT22;11070;51.336;12.340;2022-07-11T03:22:56;11.40;99.90
2062;DHT22;11070;51.336;12.340;2022-07-11T03:25:22;11.40;99.90
2062;DHT22;11070;51.336;12.340;2022-07-11T03:27:47;11.50;99.90
2062;DHT22;11070;51.336;12.340;2022-07-11T03:30:13;11.50;99.90
2062;DHT22;11070;51.336;12.340;2022-07-11T03:32:40;11.70;99.90
2062;DHT22;11070;51.336;12.340;2022-07-11T03:35:06;11.80;99.90
2062;DHT22;11070;51.336;12.340;2022-07-11T03:37:51;11.90;99.90
2062;DHT22;11070;51.336;12.340;2022-07-11T03:40:16;12.00;99.90
2062;DHT22;11070;51.336;12.340;2022-07-11T03:42:42;12.10;99.90
2062;DHT22;11070;51.336;12.340;2022-07-11T03:45:08;12.20;99.90
2062;DHT22;11070;51.336;12.340;2022-07-11T03:47:34;12.30;99.90
2062;DHT22;11070;51.336;12.340;2022-07-11T03:49:59;12.30;99.90
2062;DHT22;11070;51.336;12.340;2022-07-11T03:52:26;12.30;99.90
2062;DHT22;11070;51.336;12.340;2022-07-11T03:54:51;12.30;99.90
2062;DHT22;11070;51.336;12.340;2022-07-11T03:57:17;12.30;99.90
2062;DHT22;11070;51.336;12.340;2022-07-11T03:59:42;12.30;99.90
2062;DHT22;11070;51.336;12.340;2022-07-11T04:02:08;12.40;99.90
2062;DHT22;11070;51.336;12.340;2022-07-11T04:04:33;12.40;99.90
2062;DHT22;11070;51.336;12.340;2022-07-11T04:06:59;12.40;99.90
2062;DHT22;11070;51.336;12.340;2022-07-11T04:09:25;12.50;99.90
2062;DHT22;11070;51.336;12.340;2022-07-11T04:11:50;12.50;99.90
2062;DHT22;11070;51.336;12.340;2022-07-11T04:14:16;12.50;99.90
2062;DHT22;11070;51.336;12.340;2022-07-11T04:16:42;12.50;99.90
2062;DHT22;11070;51.336;12.340;2022-07-11T04:19:07;12.60;99.90
2062;DHT22;11070;51.336;12.340;2022-07-11T04:21:33;12.60;99.90
2062;DHT22;11070;51.336;12.340;2022-07-11T04:23:59;12.70;99.90
2062;DHT22;11070;51.336;12.340;2022-07-11T04:26:24;12.70;99.90
2062;DHT22;11070;51.336;12.340;2022-07-11T04:28:50;12.70;97.70
2062;DHT22;11070;51.336;12.340;2022-07-11T04:31:15;12.80;92.90
2062;DHT22;11070;51.336;12.340;2022-07-11T04:33:41;12.90;79.20
2062;DHT22;11070;51.336;12.340;2022-07-11T04:36:07;12.90;64.70
2062;DHT22;11070;51.336;12.340;2022-07-11T04:38:32;13.00;52.50
2062;DHT22;11070;51.336;12.340;2022-07-11T04:40:58;13.00;53.10
2062;DHT22;11070;51.336;12.340;2022-07-11T04:43:23;13.10;44.90
2062;DHT22;11070;51.336;12.340;2022-07-11T04:45:49;13.10;44.40
2062;DHT22;11070;51.336;12.340;2022-07-11T04:48:15;13.20;45.00
2062;DHT22;11070;51.336;12.340;2022-07-11T04:50:44;13.20;40.20
2062;DHT22;11070;51.336;12.340;2022-07-11T04:53:10;13.20;42.20
2062;DHT22;11070;51.336;12.340;2022-07-11T04:55:37;13.30;39.90
2062;DHT22;11070;51.336;12.340;2022-07-11T04:58:09;13.40;38.40
2062;DHT22;11070;51.336;12.340;2022-07-11T05:00:35;13.40;30.50
2062;DHT22;11070;51.336;12.340;2022-07-11T05:03:01;13.50;32.10
2062;DHT22;11070;51.336;12.340;2022-07-11T05:05:27;13.50;24.10
2062;DHT22;11070;51.336;12.340;2022-07-11T05:07:53;13.60;23.30
2062;DHT22;11070;51.336;12.340;2022-07-11T05:10:18;13.70;16.90
2062;DHT22;11070;51.336;12.340;2022-07-11T05:12:44;13.80;1.00
2062;DHT22;11070;51.336;12.340;2022-07-11T05:15:10;13.80;1.00
2062;DHT22;11070;51.336;12.340;2022-07-11T05:17:36;13.90;1.00
2062;DHT22;11070;51.336;12.340;2022-07-11T05:20:02;14.00;1.00
2062;DHT22;11070;51.336;12.340;2022-07-11T05:22:28;14.20;1.00
2062;DHT22;11070;51.336;12.340;2022-07-11T05:24:54;14.30;1.00
2062;DHT22;11070;51.336;12.340;2022-07-11T05:27:20;14.40;1.00
2062;DHT22;11070;51.336;12.340;2022-07-11T05:29:45;14.50;1.00
2062;DHT22;11070;51.336;12.340;2022-07-11T05:32:11;14.70;1.00
2062;DHT22;11070;51.336;12.340;2022-07-11T05:34:37;14.80;1.00
2062;DHT22;11070;51.336;12.340;2022-07-11T05:37:04;14.90;1.00
2062;DHT22;11070;51.336;12.340;2022-07-11T05:39:30;14.90;1.00
2062;DHT22;11070;51.336;12.340;2022-07-11T05:41:55;14.90;1.00
2062;DHT22;11070;51.336;12.340;2022-07-11T05:44:21;15.00;1.00
2062;DHT22;11070;51.336;12.340;2022-07-11T05:46:46;15.10;1.00
2062;DHT22;11070;51.336;12.340;2022-07-11T05:49:12;15.20;1.00
2062;DHT22;11070;51.336;12.340;2022-07-11T05:51:38;15.20;1.00
2062;DHT22;11070;51.336;12.340;2022-07-11T05:54:04;15.30;99.90
2062;DHT22;11070;51.336;12.340;2022-07-11T05:56:30;15.20;1.00
2062;DHT22;11070;51.336;12.340;2022-07-11T05:58:56;15.40;99.90
2062;DHT22;11070;51.336;12.340;2022-07-11T06:01:22;15.50;99.90
2062;DHT22;11070;51.336;12.340;2022-07-11T06:03:49;15.60;1.00
2062;DHT22;11070;51.336;12.340;2022-07-11T06:06:14;15.70;1.00
2062;DHT22;11070;51.336;12.340;2022-07-11T06:08:42;15.90;99.90
2062;DHT22;11070;51.336;12.340;2022-07-11T06:11:09;16.00;1.00
2062;DHT22;11070;51.336;12.340;2022-07-11T06:13:36;16.20;99.90
2062;DHT22;11070;51.336;12.340;2022-07-11T06:16:04;16.30;99.90
2062;DHT22;11070;51.336;12.340;2022-07-11T06:18:29;16.30;1.00
2062;DHT22;11070;51.336;12.340;2022-07-11T06:20:55;16.50;1.00
2062;DHT22;11070;51.336;12.340;2022-07-11T06:23:21;16.60;1.00
2062;DHT22;11070;51.336;12.340;2022-07-11T06:25:46;16.70;99.90
2062;DHT22;11070;51.336;12.340;2022-07-11T06:28:12;16.80;7.40
2062;DHT22;11070;51.336;12.340;2022-07-11T06:30:38;16.70;35.50
2062;DHT22;11070;51.336;12.340;2022-07-11T06:33:04;16.70;1.00
2062;DHT22;11070;51.336;12.340;2022-07-11T06:35:30;16.90;1.00
2062;DHT22;11070;51.336;12.340;2022-07-11T06:37:56;17.10;99.90
2062;DHT22;11070;51.336;12.340;2022-07-11T06:40:22;17.20;99.90
2062;DHT22;11070;51.336;12.340;2022-07-11T06:42:49;17.60;99.90
2062;DHT22;11070;51.336;12.340;2022-07-11T06:45:15;18.00;1.00
2062;DHT22;11070;51.336;12.340;2022-07-11T06:47:42;18.10;1.00
2062;DHT22;11070;51.336;12.340;2022-07-11T06:50:09;18.10;1.00
2062;DHT22;11070;51.336;12.340;2022-07-11T06:52:35;18.30;1.00
2062;DHT22;11070;51.336;12.340;2022-07-11T06:55:01;18.50;1.00
2062;DHT22;11070;51.336;12.340;2022-07-11T06:57:27;18.40;1.00
2062;DHT22;11070;51.336;12.340;2022-07-11T06:59:52;18.50;1.00
2062;DHT22;11070;51.336;12.340;2022-07-11T07:02:18;18.70;1.00
2062;DHT22;11070;51.336;12.340;2022-07-11T07:04:44;18.90;1.00
2062;DHT22;11070;51.336;12.340;2022-07-11T07:07:09;19.00;1.00
2062;DHT22;11070;51.336;12.340;2022-07-11T07:09:35;19.20;1.00
2062;DHT22;11070;51.336;12.340;2022-07-11T07:12:00;19.20;1.00
2062;DHT22;11070;51.336;12.340;2022-07-11T07:14:26;19.10;1.00
2062;DHT22;11070;51.336;12.340;2022-07-11T07:16:52;18.80;1.00
2062;DHT22;11070;51.336;12.340;2022-07-11T07:19:18;18.50;1.00
2062;DHT22;11070;51.336;12.340;2022-07-11T07:21:43;18.20;1.00
2062;DHT22;11070;51.336;12.340;2022-07-11T07:24:09;18.10;1.00
2062;DHT22;11070;51.336;12.340;2022-07-11T07:26:35;18.10;1.00
2062;DHT22;11070;51.336;12.340;2022-07-11T07:29:01;18.20;1.00
2062;DHT22;11070;51.336;12.340;2022-07-11T07:31:26;18.20;1.00
2062;DHT22;11070;51.336;12.340;2022-07-11T07:33:52;18.30;1.00
2062;DHT22;11070;51.336;12.340;2022-07-11T07:36:18;18.30;1.00
2062;DHT22;11070;51.336;12.340;2022-07-11T07:38:44;18.00;1.00
2062;DHT22;11070;51.336;12.340;2022-07-11T07:41:13;18.00;1.00
2062;DHT22;11070;51.336;12.340;2022-07-11T07:43:39;18.00;1.00
2062;DHT22;11070;51.336;12.340;2022-07-11T07:46:05;17.80;1.00
2062;DHT22;11070;51.336;12.340;2022-07-11T07:48:31;18.00;1.00
2062;DHT22;11070;51.336;12.340;2022-07-11T07:50:56;18.20;1.00
2062;DHT22;11070;51.336;12.340;2022-07-11T07:53:22;18.50;1.00
2062;DHT22;11070;51.336;12.340;2022-07-11T07:55:47;18.70;1.00
2062;DHT22;11070;51.336;12.340;2022-07-11T07:58:15;19.20;1.00
2062;DHT22;11070;51.336;12.340;2022-07-11T08:00:40;19.40;1.00
2062;DHT22;11070;51.336;12.340;2022-07-11T08:03:24;19.60;1.00
2062;DHT22;11070;51.336;12.340;2022-07-11T08:05:50;20.00;99.90
2062;DHT22;11070;51.336;12.340;2022-07-11T08:08:16;20.50;99.90
2062;DHT22;11070;51.336;12.340;2022-07-11T08:10:41;20.80;99.90
2062;DHT22;11070;51.336;12.340;2022-07-11T08:13:07;21.00;99.90
2062;DHT22;11070;51.336;12.340;2022-07-11T08:15:32;21.30;99.90
2062;DHT22;11070;51.336;12.340;2022-07-11T08:17:58;21.70;99.90
2062;DHT22;11070;51.336;12.340;2022-07-11T08:20:24;21.80;99.90
2062;DHT22;11070;51.336;12.340;2022-07-11T08:22:49;22.20;99.90
2062;DHT22;11070;51.336;12.340;2022-07-11T08:25:15;22.60;99.90
2062;DHT22;11070;51.336;12.340;2022-07-11T08:27:41;22.60;99.90
2062;DHT22;11070;51.336;12.340;2022-07-11T08:30:07;22.50;99.90
2062;DHT22;11070;51.336;12.340;2022-07-11T08:32:34;21.90;99.90
2062;DHT22;11070;51.336;12.340;2022-07-11T08:34:59;21.60;99.90
2062;DHT22;11070;51.336;12.340;2022-07-11T08:37:25;20.90;99.90
2062;DHT22;11070;51.336;12.340;2022-07-11T08:39:51;20.50;99.90
2062;DHT22;11070;51.336;12.340;2022-07-11T08:42:19;20.80;99.90
2062;DHT22;11070;51.336;12.340;2022-07-11T08:44:45;20.70;99.90
2062;DHT22;11070;51.336;12.340;2022-07-11T08:47:12;21.00;99.90
2062;DHT22;11070;51.336;12.340;2022-07-11T08:49:39;21.40;99.90
2062;DHT22;11070;51.336;12.340;2022-07-11T08:52:05;21.80;99.90
2062;DHT22;11070;51.336;12.340;2022-07-11T08:54:32;22.30;99.90
2062;DHT22;11070;51.336;12.340;2022-07-11T08:56:58;22.40;99.90
2062;DHT22;11070;51.336;12.340;2022-07-11T08:59:25;21.80;99.90
2062;DHT22;11070;51.336;12.340;2022-07-11T09:01:55;21.50;99.90
2062;DHT22;11070;51.336;12.340;2022-07-11T09:04:23;21.40;99.90
2062;DHT22;11070;51.336;12.340;2022-07-11T09:06:50;21.30;99.90
2062;DHT22;11070;51.336;12.340;2022-07-11T09:09:15;21.90;99.90
2062;DHT22;11070;51.336;12.340;2022-07-11T09:11:49;22.60;99.90
2062;DHT22;11070;51.336;12.340;2022-07-11T09:14:22;23.30;99.90
2062;DHT22;11070;51.336;12.340;2022-07-11T09:16:59;23.70;99.90
2062;DHT22;11070;51.336;12.340;2022-07-11T09:19:28;23.90;99.90
2062;DHT22;11070;51.336;12.340;2022-07-11T09:22:01;23.80;99.90
2062;DHT22;11070;51.336;12.340;2022-07-11T09:24:53;23.40;99.90
2062;DHT22;11070;51.336;12.340;2022-07-11T09:27:53;23.40;99.90
2062;DHT22;11070;51.336;12.340;2022-07-11T09:33:01;23.10;99.90
2062;DHT22;11070;51.336;12.340;2022-07-11T09:37:55;24.10;99.90
2062;DHT22;11070;51.336;12.340;2022-07-11T09:40:21;24.60;99.90
2062;DHT22;11070;51.336;12.340;2022-07-11T09:42:48;24.70;99.90
2062;DHT22;11070;51.336;12.340;2022-07-11T09:45:14;25.10;99.90
2062;DHT22;11070;51.336;12.340;2022-07-11T09:47:47;25.20;99.90
2062;DHT22;11070;51.336;12.340;2022-07-11T09:50:27;24.70;99.90
2062;DHT22;11070;51.336;12.340;2022-07-11T09:53:01;24.50;99.90
2062;DHT22;11070;51.336;12.340;2022-07-11T09:55:35;24.40;99.90
2062;DHT22;11070;51.336;12.340;2022-07-11T09:58:05;25.00;99.90
2062;DHT22;11070;51.336;12.340;2022-07-11T10:00:33;25.60;99.90
2062;DHT22;11070;51.336;12.340;2022-07-11T10:02:59;26.20;99.90
2062;DHT22;11070;51.336;12.340;2022-07-11T10:05:26;26.60;99.90
2062;DHT22;11070;51.336;12.340;2022-07-11T10:07:52;26.60;99.90
2062;DHT22;11070;51.336;12.340;2022-07-11T10:10:18;25.90;99.90
2062;DHT22;11070;51.336;12.340;2022-07-11T10:12:44;25.70;99.90
2062;DHT22;11070;51.336;12.340;2022-07-11T10:15:15;25.40;99.90
2062;DHT22;11070;51.336;12.340;2022-07-11T10:18:02;25.40;99.90
2062;DHT22;11070;51.336;12.340;2022-07-11T10:23:09;25.80;99.90
2062;DHT22;11070;51.336;12.340;2022-07-11T10:28:48;26.10;99.90
2062;DHT22;11070;51.336;12.340;2022-07-11T10:31:24;26.80;99.90
2062;DHT22;11070;51.336;12.340;2022-07-11T10:34:03;27.10;99.90
2062;DHT22;11070;51.336;12.340;2022-07-11T10:36:30;27.20;99.90
2062;DHT22;11070;51.336;12.340;2022-07-11T10:39:21;27.30;99.90
2062;DHT22;11070;51.336;12.340;2022-07-11T10:41:54;26.50;99.90
2062;DHT22;11070;51.336;12.340;2022-07-11T10:44:20;26.10;99.90
2062;DHT22;11070;51.336;12.340;2022-07-11T10:46:46;26.30;99.90
2062;DHT22;11070;51.336;12.340;2022-07-11T10:52:02;25.70;99.90
2062;DHT22;11070;51.336;12.340;2022-07-11T10:55:00;26.40;99.90
2062;DHT22;11070;51.336;12.340;2022-07-11T10:58:06;27.20;99.90
2062;DHT22;11070;51.336;12.340;2022-07-11T11:00:33;27.60;99.90
2062;DHT22;11070;51.336;12.340;2022-07-11T11:10:58;27.90;99.90
2062;DHT22;11070;51.336;12.340;2022-07-11T11:13:24;27.40;99.90
2062;DHT22;11070;51.336;12.340;2022-07-11T11:15:50;26.90;99.90
2062;DHT22;11070;51.336;12.340;2022-07-11T11:26:24;25.30;99.90
2062;DHT22;11070;51.336;12.340;2022-07-11T11:29:05;25.90;99.90
2062;DHT22;11070;51.336;12.340;2022-07-11T11:31:31;27.10;99.90
2062;DHT22;11070;51.336;12.340;2022-07-11T11:33:59;27.00;99.90
2062;DHT22;11070;51.336;12.340;2022-07-11T11:36:26;27.40;99.90
2062;DHT22;11070;51.336;12.340;2022-07-11T11:38:53;27.90;99.90
2062;DHT22;11070;51.336;12.340;2022-07-11T11:41:26;28.40;99.90
2062;DHT22;11070;51.336;12.340;2022-07-11T11:43:54;29.00;99.90
2062;DHT22;11070;51.336;12.340;2022-07-11T11:46:24;28.10;99.90
2062;DHT22;11070;51.336;12.340;2022-07-11T11:48:49;27.00;99.90
2062;DHT22;11070;51.336;12.340;2022-07-11T11:51:17;26.60;99.90
2062;DHT22;11070;51.336;12.340;2022-07-11T11:56:17;25.90;99.90
2062;DHT22;11070;51.336;12.340;2022-07-11T11:58:47;25.80;99.90
2062;DHT22;11070;51.336;12.340;2022-07-11T12:01:13;26.60;99.90
2062;DHT22;11070;51.336;12.340;2022-07-11T12:03:53;27.30;99.90
2062;DHT22;11070;51.336;12.340;2022-07-11T12:08:59;27.60;99.90
2062;DHT22;11070;51.336;12.340;2022-07-11T12:11:25;27.00;99.90
2062;DHT22;11070;51.336;12.340;2022-07-11T12:14:01;26.80;99.90
2062;DHT22;11070;51.336;12.340;2022-07-11T12:16:27;27.10;99.90
2062;DHT22;11070;51.336;12.340;2022-07-11T12:19:11;27.50;99.90
2062;DHT22;11070;51.336;12.340;2022-07-11T12:21:39;27.20;99.90
2062;DHT22;11070;51.336;12.340;2022-07-11T12:24:07;27.40;99.90
2062;DHT22;11070;51.336;12.340;2022-07-11T12:26:35;27.40;99.90
2062;DHT22;11070;51.336;12.340;2022-07-11T12:31:52;28.20;99.90
2062;DHT22;11070;51.336;12.340;2022-07-11T12:36:48;27.30;99.90
2062;DHT22;11070;51.336;12.340;2022-07-11T12:39:24;27.00;99.90
2062;DHT22;11070;51.336;12.340;2022-07-11T12:41:54;27.50;99.90
2062;DHT22;11070;51.336;12.340;2022-07-11T12:44:30;27.80;99.90
2062;DHT22;11070;51.336;12.340;2022-07-11T12:47:23;28.20;99.90
2062;DHT22;11070;51.336;12.340;2022-07-11T12:49:50;28.20;99.90
2062;DHT22;11070;51.336;12.340;2022-07-11T12:52:16;27.40;99.90
2062;DHT22;11070;51.336;12.340;2022-07-11T12:54:43;27.90;99.90
2062;DHT22;11070;51.336;12.340;2022-07-11T12:57:09;28.30;99.90
2062;DHT22;11070;51.336;12.340;2022-07-11T12:59:39;28.40;99.90
2062;DHT22;11070;51.336;12.340;2022-07-11T13:02:07;28.50;99.90
2062;DHT22;11070;51.336;12.340;2022-07-11T13:04:38;29.00;99.90
2062;DHT22;11070;51.336;12.340;2022-07-11T13:10:08;29.40;99.90
2062;DHT22;11070;51.336;12.340;2022-07-11T13:12:34;29.40;99.90
2062;DHT22;11070;51.336;12.340;2022-07-11T13:15:02;29.00;99.90
2062;DHT22;11070;51.336;12.340;2022-07-11T13:17:39;28.10;99.90
2062;DHT22;11070;51.336;12.340;2022-07-11T13:20:10;27.80;99.90
2062;DHT22;11070;51.336;12.340;2022-07-11T13:22:38;27.90;99.90
2062;DHT22;11070;51.336;12.340;2022-07-11T13:25:04;27.90;99.90
2062;DHT22;11070;51.336;12.340;2022-07-11T13:27:31;28.10;99.90
2062;DHT22;11070;51.336;12.340;2022-07-11T13:29:57;28.20;99.90
2062;DHT22;11070;51.336;12.340;2022-07-11T13:32:23;28.50;99.90
2062;DHT22;11070;51.336;12.340;2022-07-11T13:34:49;28.80;99.90
2062;DHT22;11070;51.336;12.340;2022-07-11T13:37:15;28.70;99.90
2062;DHT22;11070;51.336;12.340;2022-07-11T13:39:41;28.50;99.90
2062;DHT22;11070;51.336;12.340;2022-07-11T13:42:07;27.80;99.90
2062;DHT22;11070;51.336;12.340;2022-07-11T13:44:32;27.90;99.90
2062;DHT22;11070;51.336;12.340;2022-07-11T13:46:58;28.00;99.90
2062;DHT22;11070;51.336;12.340;2022-07-11T13:49:24;28.20;99.90
2062;DHT22;11070;51.336;12.340;2022-07-11T13:51:50;28.70;99.90
2062;DHT22;11070;51.336;12.340;2022-07-11T13:54:15;29.10;99.90
2062;DHT22;11070;51.336;12.340;2022-07-11T13:56:41;28.80;99.90
2062;DHT22;11070;51.336;12.340;2022-07-11T13:59:06;28.30;99.90
2062;DHT22;11070;51.336;12.340;2022-07-11T14:01:32;28.20;99.90
2062;DHT22;11070;51.336;12.340;2022-07-11T14:03:58;27.40;99.90
2062;DHT22;11070;51.336;12.340;2022-07-11T14:06:23;27.70;99.90
2062;DHT22;11070;51.336;12.340;2022-07-11T14:08:49;27.80;99.90
2062;DHT22;11070;51.336;12.340;2022-07-11T14:11:15;27.40;99.90
2062;DHT22;11070;51.336;12.340;2022-07-11T14:13:40;27.40;99.90
2062;DHT22;11070;51.336;12.340;2022-07-11T14:16:06;27.40;99.90
2062;DHT22;11070;51.336;12.340;2022-07-11T14:18:32;27.50;99.90
2062;DHT22;11070;51.336;12.340;2022-07-11T14:20:58;27.80;99.90
2062;DHT22;11070;51.336;12.340;2022-07-11T14:23:23;27.90;99.90
2062;DHT22;11070;51.336;12.340;2022-07-11T14:25:52;28.00;99.90
2062;DHT22;11070;51.336;12.340;2022-07-11T14:28:18;27.80;99.90
2062;DHT22;11070;51.336;12.340;2022-07-11T14:30:44;27.60;99.90
2062;DHT22;11070;51.336;12.340;2022-07-11T14:33:10;27.80;99.90
2062;DHT22;11070;51.336;12.340;2022-07-11T14:35:36;27.90;99.90
2062;DHT22;11070;51.336;12.340;2022-07-11T14:38:02;28.10;99.90
2062;DHT22;11070;51.336;12.340;2022-07-11T14:40:28;27.50;99.90
2062;DHT22;11070;51.336;12.340;2022-07-11T14:42:54;27.40;99.90
2062;DHT22;11070;51.336;12.340;2022-07-11T14:45:19;27.20;99.90
2062;DHT22;11070;51.336;12.340;2022-07-11T14:47:45;27.20;99.90
2062;DHT22;11070;51.336;12.340;2022-07-11T14:50:11;27.60;99.90
2062;DHT22;11070;51.336;12.340;2022-07-11T14:52:38;27.90;99.90
2062;DHT22;11070;51.336;12.340;2022-07-11T14:55:04;27.90;99.90
2062;DHT22;11070;51.336;12.340;2022-07-11T14:57:31;27.50;99.90
2062;DHT22;11070;51.336;12.340;2022-07-11T14:59:57;27.10;99.90
2062;DHT22;11070;51.336;12.340;2022-07-11T15:02:23;26.90;99.90
2062;DHT22;11070;51.336;12.340;2022-07-11T15:05:07;26.80;99.90
2062;DHT22;11070;51.336;12.340;2022-07-11T15:07:33;26.90;99.90
2062;DHT22;11070;51.336;12.340;2022-07-11T15:10:17;26.40;99.90
2062;DHT22;11070;51.336;12.340;2022-07-11T15:13:01;26.30;99.90
2062;DHT22;11070;51.336;12.340;2022-07-11T15:15:27;26.10;99.90
2062;DHT22;11070;51.336;12.340;2022-07-11T15:17:52;26.10;99.90
2062;DHT22;11070;51.336;12.340;2022-07-11T15:20:18;26.10;99.90
2062;DHT22;11070;51.336;12.340;2022-07-11T15:22:44;25.70;99.90
2062;DHT22;11070;51.336;12.340;2022-07-11T15:25:09;25.40;99.90
2062;DHT22;11070;51.336;12.340;2022-07-11T15:27:35;25.40;99.90
2062;DHT22;11070;51.336;12.340;2022-07-11T15:30:00;25.50;99.90
2062;DHT22;11070;51.336;12.340;2022-07-11T15:32:26;25.60;99.90
2062;DHT22;11070;51.336;12.340;2022-07-11T15:34:53;25.50;99.90
2062;DHT22;11070;51.336;12.340;2022-07-11T15:37:18;25.70;99.90
2062;DHT22;11070;51.336;12.340;2022-07-11T15:39:44;25.60;99.90
2062;DHT22;11070;51.336;12.340;2022-07-11T15:42:10;25.60;99.90
2062;DHT22;11070;51.336;12.340;2022-07-11T15:44:35;25.40;99.90
2062;DHT22;11070;51.336;12.340;2022-07-11T15:47:01;25.50;99.90
2062;DHT22;11070;51.336;12.340;2022-07-11T15:49:27;25.50;99.90
2062;DHT22;11070;51.336;12.340;2022-07-11T15:51:53;25.70;99.90
2062;DHT22;11070;51.336;12.340;2022-07-11T15:54:19;25.60;99.90
2062;DHT22;11070;51.336;12.340;2022-07-11T15:56:45;25.20;99.90
2062;DHT22;11070;51.336;12.340;2022-07-11T15:59:11;25.10;99.90
2062;DHT22;11070;51.336;12.340;2022-07-11T16:01:37;24.90;99.90
2062;DHT22;11070;51.336;12.340;2022-07-11T16:04:04;25.00;99.90
2062;DHT22;11070;51.336;12.340;2022-07-11T16:06:31;25.10;99.90
2062;DHT22;11070;51.336;12.340;2022-07-11T16:08:59;25.30;99.90
2062;DHT22;11070;51.336;12.340;2022-07-11T16:11:25;25.30;99.90
2062;DHT22;11070;51.336;12.340;2022-07-11T16:13:54;25.20;99.90
2062;DHT22;11070;51.336;12.340;2022-07-11T16:16:21;25.10;99.90
2062;DHT22;11070;51.336;12.340;2022-07-11T16:18:49;25.00;99.90